sensor_id;sensor_type;location;lat;lon;timestamp;P1;durP1;ratioP1;P2;durP2;ratioP2
74535;SDS011;63013;51.104;-115.370;2022-09-02T00:00:59;2.70;;;2.40;;
74535;SDS011;63013;51.104;-115.370;2022-09-02T00:03:31;2.70;;;2.50;;
74535;SDS011;63013;51.104;-115.370;2022-09-02T00:06:01;3.00;;;2.40;;
74535;SDS011;63013;51.104;-115.370;2022-09-02T00:08:29;2.80;;;2.50;;
74535;SDS011;63013;51.104;-115.370;2022-09-02T00:10:58;3.00;;;2.40;;
74535;SDS011;63013;51.104;-115.370;2022-09-02T00:13:33;3.60;;;2.60;;
74535;SDS011;63013;51.104;-115.370;2022-09-02T00:16:02;2.30;;;2.10;;
74535;SDS011;63013;51.104;-115.370;2022-09-02T00:18:39;3.30;;;2.50;;
74535;SDS011;63013;51.104;-115.370;2022-09-02T00:21:07;3.30;;;2.50;;
74535;SDS011;63013;51.104;-115.370;2022-09-02T00:23:40;2.30;;;2.10;;
74535;SDS011;63013;51.104;-115.370;2022-09-02T00:26:09;2.90;;;2.40;;
74535;SDS011;63013;51.104;-115.370;2022-09-02T00:28:41;3.80;;;2.50;;
74535;SDS011;63013;51.104;-115.370;2022-09-02T00:31:12;2.50;;;2.30;;
74535;SDS011;63013;51.104;-115.370;2022-09-02T00:33:39;2.90;;;2.40;;
74535;SDS011;63013;51.104;-115.370;2022-09-02T00:36:07;2.60;;;2.40;;
74535;SDS011;63013;51.104;-115.370;2022-09-02T00:38:34;3.50;;;2.50;;
74535;SDS011;63013;51.104;-115.370;2022-09-02T00:41:06;3.40;;;2.30;;
74535;SDS011;63013;51.104;-115.370;2022-09-02T00:43:50;4.10;;;2.40;;
74535;SDS011;63013;51.104;-115.370;2022-09-02T00:46:31;2.70;;;2.50;;
74535;SDS011;63013;51.104;-115.370;2022-09-02T00:51:48;2.70;;;2.50;;
74535;SDS011;63013;51.104;-115.370;2022-09-02T00:54:20;3.50;;;2.40;;
74535;SDS011;63013;51.104;-115.370;2022-09-02T00:56:51;2.60;;;2.40;;
74535;SDS011;63013;51.104;-115.370;2022-09-02T00:59:27;2.60;;;2.40;;
74535;SDS011;63013;51.104;-115.370;2022-09-02T01:02:05;3.30;;;2.30;;
74535;SDS011;63013;51.104;-115.370;2022-09-02T01:04:33;2.50;;;2.30;;
74535;SDS011;63013;51.104;-115.370;2022-09-02T01:07:08;3.60;;;2.40;;
74535;SDS011;63013;51.104;-115.370;2022-09-02T01:09:36;2.50;;;2.20;;
74535;SDS011;63013;51.104;-115.370;2022-09-02T01:12:04;2.80;;;2.30;;
74535;SDS011;63013;51.104;-115.370;2022-09-02T01:14:40;2.80;;;2.60;;
74535;SDS011;63013;51.104;-115.370;2022-09-02T01:17:08;3.00;;;2.30;;
74535;SDS011;63013;51.104;-115.370;2022-09-02T01:19:42;2.70;;;2.40;;
74535;SDS011;63013;51.104;-115.370;2022-09-02T01:22:24;2.30;;;2.00;;
74535;SDS011;63013;51.104;-115.370;2022-09-02T01:24:56;2.60;;;2.30;;
74535;SDS011;63013;51.104;-115.370;2022-09-02T01:27:40;2.70;;;2.50;;
74535;SDS011;63013;51.104;-115.370;2022-09-02T01:30:11;2.80;;;2.20;;
74535;SDS011;63013;51.104;-115.370;2022-09-02T01:32:39;2.40;;;2.20;;
74535;SDS011;63013;51.104;-115.370;2022-09-02T01:35:07;2.60;;;2.40;;
74535;SDS011;63013;51.104;-115.370;2022-09-02T01:37:36;3.00;;;2.20;;
74535;SDS011;63013;51.104;-115.370;2022-09-02T01:40:06;3.70;;;2.40;;
74535;SDS011;63013;51.104;-115.370;2022-09-02T01:42:35;2.90;;;2.00;;
74535;SDS011;63013;51.104;-115.370;2022-09-02T01:45:04;4.90;;;1.80;;
74535;SDS011;63013;51.104;-115.370;2022-09-02T01:47:53;2.30;;;2.10;;
74535;SDS011;63013;51.104;-115.370;2022-09-02T01:50:19;5.00;;;1.80;;
74535;SDS011;63013;51.104;-115.370;2022-09-02T01:52:46;5.60;;;2.10;;
74535;SDS011;63013;51.104;-115.370;2022-09-02T01:55:13;2.90;;;1.90;;
74535;SDS011;63013;51.104;-115.370;2022-09-02T01:57:40;4.80;;;2.00;;
74535;SDS011;63013;51.104;-115.370;2022-09-02T02:00:09;4.80;;;1.80;;
74535;SDS011;63013;51.104;-115.370;2022-09-02T02:02:38;2.20;;;2.00;;
74535;SDS011;63013;51.104;-115.370;2022-09-02T02:05:06;3.40;;;1.70;;
74535;SDS011;63013;51.104;-115.370;2022-09-02T02:07:33;4.60;;;2.00;;
74535;SDS011;63013;51.104;-115.370;2022-09-02T02:10:01;3.80;;;1.60;;
74535;SDS011;63013;51.104;-115.370;2022-09-02T02:12:30;3.70;;;1.70;;
74535;SDS011;63013;51.104;-115.370;2022-09-02T02:14:57;3.10;;;1.70;;
74535;SDS011;63013;51.104;-115.370;2022-09-02T02:17:26;2.30;;;1.90;;
74535;SDS011;63013;51.104;-115.370;2022-09-02T02:19:53;2.80;;;1.70;;
74535;SDS011;63013;51.104;-115.370;2022-09-02T02:22:20;4.80;;;2.00;;
74535;SDS011;63013;51.104;-115.370;2022-09-02T02:24:48;4.70;;;2.40;;
74535;SDS011;63013;51.104;-115.370;2022-09-02T02:27:15;4.80;;;1.90;;
74535;SDS011;63013;51.104;-115.370;2022-09-02T02:29:42;2.60;;;2.00;;
74535;SDS011;63013;51.104;-115.370;2022-09-02T02:32:09;3.80;;;1.70;;
74535;SDS011;63013;51.104;-115.370;2022-09-02T02:34:36;3.90;;;1.70;;
74535;SDS011;63013;51.104;-115.370;2022-09-02T02:37:04;4.50;;;1.70;;
74535;SDS011;63013;51.104;-115.370;2022-09-02T02:39:31;2.90;;;1.90;;
74535;SDS011;63013;51.104;-115.370;2022-09-02T02:41:59;1.90;;;1.60;;
74535;SDS011;63013;51.104;-115.370;2022-09-02T02:44:25;4.40;;;1.80;;
74535;SDS011;63013;51.104;-115.370;2022-09-02T02:46:54;2.50;;;1.60;;
74535;SDS011;63013;51.104;-115.370;2022-09-02T02:49:21;4.00;;;1.50;;
74535;SDS011;63013;51.104;-115.370;2022-09-02T02:51:48;4.80;;;1.70;;
74535;SDS011;63013;51.104;-115.370;2022-09-02T02:54:15;3.40;;;1.50;;
74535;SDS011;63013;51.104;-115.370;2022-09-02T02:56:42;4.70;;;1.90;;
74535;SDS011;63013;51.104;-115.370;2022-09-02T02:59:09;3.30;;;1.70;;
74535;SDS011;63013;51.104;-115.370;2022-09-02T03:01:36;5.00;;;1.90;;
74535;SDS011;63013;51.104;-115.370;2022-09-02T03:04:04;3.70;;;1.70;;
74535;SDS011;63013;51.104;-115.370;2022-09-02T03:06:32;3.90;;;1.80;;
74535;SDS011;63013;51.104;-115.370;2022-09-02T03:09:00;4.00;;;2.20;;
74535;SDS011;63013;51.104;-115.370;2022-09-02T03:11:28;3.10;;;1.90;;
74535;SDS011;63013;51.104;-115.370;2022-09-02T03:13:56;4.50;;;1.60;;
74535;SDS011;63013;51.104;-115.370;2022-09-02T03:16:24;3.80;;;1.90;;
74535;SDS011;63013;51.104;-115.370;2022-09-02T03:18:51;1.90;;;1.70;;
74535;SDS011;63013;51.104;-115.370;2022-09-02T03:21:18;3.10;;;1.70;;
74535;SDS011;63013;51.104;-115.370;2022-09-02T03:23:46;4.60;;;1.90;;
74535;SDS011;63013;51.104;-115.370;2022-09-02T03:26:18;3.10;;;1.80;;
74535;SDS011;63013;51.104;-115.370;2022-09-02T03:28:47;2.90;;;1.50;;
74535;SDS011;63013;51.104;-115.370;2022-09-02T03:31:18;3.80;;;1.90;;
74535;SDS011;63013;51.104;-115.370;2022-09-02T03:33:47;3.30;;;1.60;;
74535;SDS011;63013;51.104;-115.370;2022-09-02T03:36:23;3.20;;;1.70;;
74535;SDS011;63013;51.104;-115.370;2022-09-02T03:38:53;2.60;;;1.60;;
74535;SDS011;63013;51.104;-115.370;2022-09-02T03:41:21;2.20;;;1.60;;
74535;SDS011;63013;51.104;-115.370;2022-09-02T03:43:48;3.50;;;2.00;;
74535;SDS011;63013;51.104;-115.370;2022-09-02T03:46:17;3.50;;;2.00;;
74535;SDS011;63013;51.104;-115.370;2022-09-02T03:48:44;3.60;;;1.80;;
74535;SDS011;63013;51.104;-115.370;2022-09-02T03:51:12;5.70;;;2.10;;
74535;SDS011;63013;51.104;-115.370;2022-09-02T03:53:40;3.00;;;1.60;;
74535;SDS011;63013;51.104;-115.370;2022-09-02T03:56:09;4.40;;;1.80;;
74535;SDS011;63013;51.104;-115.370;2022-09-02T03:58:40;3.60;;;2.10;;
74535;SDS011;63013;51.104;-115.370;2022-09-02T04:01:18;5.00;;;2.20;;
74535;SDS011;63013;51.104;-115.370;2022-09-02T04:03:49;6.80;;;2.10;;
74535;SDS011;63013;51.104;-115.370;2022-09-02T04:06:18;4.50;;;2.00;;
74535;SDS011;63013;51.104;-115.370;2022-09-02T04:08:47;3.50;;;2.40;;
74535;SDS011;63013;51.104;-115.370;2022-09-02T04:11:17;3.30;;;2.00;;
74535;SDS011;63013;51.104;-115.370;2022-09-02T04:13:48;2.40;;;2.10;;
74535;SDS011;63013;51.104;-115.370;2022-09-02T04:16:20;6.60;;;2.10;;
74535;SDS011;63013;51.104;-115.370;2022-09-02T04:18:55;5.20;;;2.00;;
74535;SDS011;63013;51.104;-115.370;2022-09-02T04:21:24;4.40;;;2.00;;
74535;SDS011;63013;51.104;-115.370;2022-09-02T04:23:52;4.20;;;2.10;;
74535;SDS011;63013;51.104;-115.370;2022-09-02T04:26:20;3.60;;;2.20;;
74535;SDS011;63013;51.104;-115.370;2022-09-02T04:28:48;3.90;;;2.00;;
74535;SDS011;63013;51.104;-115.370;2022-09-02T04:31:18;6.30;;;2.20;;
74535;SDS011;63013;51.104;-115.370;2022-09-02T04:33:47;4.50;;;1.80;;
74535;SDS011;63013;51.104;-115.370;2022-09-02T04:36:15;5.70;;;2.20;;
74535;SDS011;63013;51.104;-115.370;2022-09-02T04:38:44;3.10;;;2.10;;
74535;SDS011;63013;51.104;-115.370;2022-09-02T04:41:22;4.30;;;2.20;;
74535;SDS011;63013;51.104;-115.370;2022-09-02T04:43:58;2.50;;;2.20;;
74535;SDS011;63013;51.104;-115.370;2022-09-02T04:46:26;3.00;;;2.00;;
74535;SDS011;63013;51.104;-115.370;2022-09-02T04:48:54;6.80;;;2.30;;
74535;SDS011;63013;51.104;-115.370;2022-09-02T04:51:24;3.00;;;1.90;;
74535;SDS011;63013;51.104;-115.370;2022-09-02T04:53:52;3.20;;;2.00;;
74535;SDS011;63013;51.104;-115.370;2022-09-02T04:56:25;4.50;;;2.00;;
74535;SDS011;63013;51.104;-115.370;2022-09-02T04:58:57;3.20;;;2.10;;
74535;SDS011;63013;51.104;-115.370;2022-09-02T05:01:27;4.10;;;2.00;;
74535;SDS011;63013;51.104;-115.370;2022-09-02T05:03:58;2.90;;;2.10;;
74535;SDS011;63013;51.104;-115.370;2022-09-02T05:06:27;6.30;;;2.50;;
74535;SDS011;63013;51.104;-115.370;2022-09-02T05:09:05;5.30;;;2.20;;
74535;SDS011;63013;51.104;-115.370;2022-09-02T05:11:34;8.50;;;2.20;;
74535;SDS011;63013;51.104;-115.370;2022-09-02T05:14:03;4.90;;;2.20;;
74535;SDS011;63013;51.104;-115.370;2022-09-02T05:16:37;4.20;;;2.30;;
74535;SDS011;63013;51.104;-115.370;2022-09-02T05:19:06;2.80;;;1.90;;
74535;SDS011;63013;51.104;-115.370;2022-09-02T05:21:41;8.30;;;2.30;;
74535;SDS011;63013;51.104;-115.370;2022-09-02T05:24:09;6.50;;;2.40;;
74535;SDS011;63013;51.104;-115.370;2022-09-02T05:26:37;3.70;;;2.00;;
74535;SDS011;63013;51.104;-115.370;2022-09-02T05:29:05;2.60;;;2.10;;
74535;SDS011;63013;51.104;-115.370;2022-09-02T05:31:33;2.70;;;2.20;;
74535;SDS011;63013;51.104;-115.370;2022-09-02T05:34:01;3.80;;;2.10;;
74535;SDS011;63013;51.104;-115.370;2022-09-02T05:36:31;7.70;;;2.10;;
74535;SDS011;63013;51.104;-115.370;2022-09-02T05:40:20;5.40;;;2.20;;
74535;SDS011;63013;51.104;-115.370;2022-09-02T05:42:47;5.00;;;2.00;;
74535;SDS011;63013;51.104;-115.370;2022-09-02T05:45:14;3.00;;;2.30;;
74535;SDS011;63013;51.104;-115.370;2022-09-02T05:47:42;4.10;;;2.40;;
74535;SDS011;63013;51.104;-115.370;2022-09-02T05:50:09;4.60;;;1.90;;
74535;SDS011;63013;51.104;-115.370;2022-09-02T05:52:36;3.30;;;2.20;;
74535;SDS011;63013;51.104;-115.370;2022-09-02T05:55:03;4.80;;;2.20;;
74535;SDS011;63013;51.104;-115.370;2022-09-02T05:57:31;4.40;;;2.10;;
74535;SDS011;63013;51.104;-115.370;2022-09-02T05:59:58;4.40;;;2.20;;
74535;SDS011;63013;51.104;-115.370;2022-09-02T06:02:25;3.30;;;2.00;;
74535;SDS011;63013;51.104;-115.370;2022-09-02T06:04:54;3.40;;;2.50;;
74535;SDS011;63013;51.104;-115.370;2022-09-02T06:07:22;3.20;;;2.20;;
74535;SDS011;63013;51.104;-115.370;2022-09-02T06:09:52;3.40;;;2.30;;
74535;SDS011;63013;51.104;-115.370;2022-09-02T06:12:20;7.10;;;2.50;;
74535;SDS011;63013;51.104;-115.370;2022-09-02T06:14:48;3.00;;;2.50;;
74535;SDS011;63013;51.104;-115.370;2022-09-02T06:17:16;5.30;;;2.20;;
74535;SDS011;63013;51.104;-115.370;2022-09-02T06:19:44;4.10;;;2.10;;
74535;SDS011;63013;51.104;-115.370;2022-09-02T06:22:11;3.80;;;1.90;;
74535;SDS011;63013;51.104;-115.370;2022-09-02T06:24:38;6.00;;;2.40;;
74535;SDS011;63013;51.104;-115.370;2022-09-02T06:27:05;4.20;;;2.30;;
74535;SDS011;63013;51.104;-115.370;2022-09-02T06:29:32;4.80;;;2.00;;
74535;SDS011;63013;51.104;-115.370;2022-09-02T06:31:59;5.20;;;2.20;;
74535;SDS011;63013;51.104;-115.370;2022-09-02T06:34:27;4.00;;;2.10;;
74535;SDS011;63013;51.104;-115.370;2022-09-02T06:36:54;3.00;;;1.90;;
74535;SDS011;63013;51.104;-115.370;2022-09-02T06:39:23;4.20;;;2.10;;
74535;SDS011;63013;51.104;-115.370;2022-09-02T06:41:51;6.10;;;2.00;;
74535;SDS011;63013;51.104;-115.370;2022-09-02T06:44:19;3.40;;;2.20;;
74535;SDS011;63013;51.104;-115.370;2022-09-02T06:46:57;5.40;;;2.10;;
74535;SDS011;63013;51.104;-115.370;2022-09-02T06:49:26;5.00;;;2.20;;
74535;SDS011;63013;51.104;-115.370;2022-09-02T06:51:55;4.80;;;2.30;;
74535;SDS011;63013;51.104;-115.370;2022-09-02T06:54:24;3.70;;;2.00;;
74535;SDS011;63013;51.104;-115.370;2022-09-02T06:56:52;3.40;;;2.00;;
74535;SDS011;63013;51.104;-115.370;2022-09-02T06:59:20;4.90;;;2.20;;
74535;SDS011;63013;51.104;-115.370;2022-09-02T07:01:48;3.80;;;2.30;;
74535;SDS011;63013;51.104;-115.370;2022-09-02T07:04:16;5.10;;;2.10;;
74535;SDS011;63013;51.104;-115.370;2022-09-02T07:07:04;4.70;;;2.00;;
74535;SDS011;63013;51.104;-115.370;2022-09-02T07:09:33;4.60;;;2.10;;
74535;SDS011;63013;51.104;-115.370;2022-09-02T07:12:02;3.30;;;1.90;;
74535;SDS011;63013;51.104;-115.370;2022-09-02T07:14:30;4.40;;;2.00;;
74535;SDS011;63013;51.104;-115.370;2022-09-02T07:17:01;2.70;;;1.90;;
74535;SDS011;63013;51.104;-115.370;2022-09-02T07:19:28;3.40;;;2.30;;
74535;SDS011;63013;51.104;-115.370;2022-09-02T07:21:56;6.30;;;2.10;;
74535;SDS011;63013;51.104;-115.370;2022-09-02T07:24:23;2.90;;;2.20;;
74535;SDS011;63013;51.104;-115.370;2022-09-02T07:26:51;4.00;;;2.10;;
74535;SDS011;63013;51.104;-115.370;2022-09-02T07:29:18;3.00;;;2.10;;
74535;SDS011;63013;51.104;-115.370;2022-09-02T07:31:46;4.50;;;1.90;;
74535;SDS011;63013;51.104;-115.370;2022-09-02T07:34:15;5.50;;;2.30;;
74535;SDS011;63013;51.104;-115.370;2022-09-02T07:36:43;6.10;;;2.30;;
74535;SDS011;63013;51.104;-115.370;2022-09-02T07:39:14;3.70;;;2.10;;
74535;SDS011;63013;51.104;-115.370;2022-09-02T07:41:45;5.60;;;2.10;;
74535;SDS011;63013;51.104;-115.370;2022-09-02T07:44:14;4.60;;;2.00;;
74535;SDS011;63013;51.104;-115.370;2022-09-02T07:46:44;4.00;;;2.20;;
74535;SDS011;63013;51.104;-115.370;2022-09-02T07:49:12;5.00;;;2.20;;
74535;SDS011;63013;51.104;-115.370;2022-09-02T07:51:43;3.60;;;2.10;;
74535;SDS011;63013;51.104;-115.370;2022-09-02T07:54:16;6.40;;;2.50;;
74535;SDS011;63013;51.104;-115.370;2022-09-02T07:56:50;4.70;;;2.30;;
74535;SDS011;63013;51.104;-115.370;2022-09-02T07:59:19;4.00;;;2.30;;
74535;SDS011;63013;51.104;-115.370;2022-09-02T08:01:47;4.10;;;2.30;;
74535;SDS011;63013;51.104;-115.370;2022-09-02T08:04:18;3.80;;;2.00;;
74535;SDS011;63013;51.104;-115.370;2022-09-02T08:06:52;6.60;;;2.30;;
74535;SDS011;63013;51.104;-115.370;2022-09-02T08:09:20;2.60;;;1.90;;
74535;SDS011;63013;51.104;-115.370;2022-09-02T08:11:49;6.50;;;2.20;;
74535;SDS011;63013;51.104;-115.370;2022-09-02T08:14:22;3.40;;;2.30;;
74535;SDS011;63013;51.104;-115.370;2022-09-02T08:16:55;3.80;;;2.30;;
74535;SDS011;63013;51.104;-115.370;2022-09-02T08:19:23;3.90;;;2.10;;
74535;SDS011;63013;51.104;-115.370;2022-09-02T08:21:51;5.90;;;2.10;;
74535;SDS011;63013;51.104;-115.370;2022-09-02T08:24:18;5.90;;;2.20;;
74535;SDS011;63013;51.104;-115.370;2022-09-02T08:26:45;4.40;;;2.00;;
74535;SDS011;63013;51.104;-115.370;2022-09-02T08:29:12;3.10;;;2.00;;
74535;SDS011;63013;51.104;-115.370;2022-09-02T08:31:40;2.40;;;2.20;;
74535;SDS011;63013;51.104;-115.370;2022-09-02T08:34:08;3.60;;;2.10;;
74535;SDS011;63013;51.104;-115.370;2022-09-02T08:36:35;3.10;;;2.10;;
74535;SDS011;63013;51.104;-115.370;2022-09-02T08:39:03;3.40;;;1.90;;
74535;SDS011;63013;51.104;-115.370;2022-09-02T08:41:53;2.40;;;1.80;;
74535;SDS011;63013;51.104;-115.370;2022-09-02T08:44:33;4.30;;;2.20;;
74535;SDS011;63013;51.104;-115.370;2022-09-02T08:47:04;2.80;;;1.90;;
74535;SDS011;63013;51.104;-115.370;2022-09-02T08:49:49;6.80;;;2.50;;
74535;SDS011;63013;51.104;-115.370;2022-09-02T08:52:42;3.20;;;1.90;;
74535;SDS011;63013;51.104;-115.370;2022-09-02T08:55:23;4.30;;;2.20;;
74535;SDS011;63013;51.104;-115.370;2022-09-02T08:57:55;6.30;;;2.60;;
74535;SDS011;63013;51.104;-115.370;2022-09-02T09:00:22;5.50;;;2.20;;
74535;SDS011;63013;51.104;-115.370;2022-09-02T09:03:01;4.00;;;2.30;;
74535;SDS011;63013;51.104;-115.370;2022-09-02T09:06:15;4.90;;;2.20;;
74535;SDS011;63013;51.104;-115.370;2022-09-02T09:08:57;4.00;;;2.40;;
74535;SDS011;63013;51.104;-115.370;2022-09-02T09:20:14;3.50;;;2.10;;
74535;SDS011;63013;51.104;-115.370;2022-09-02T09:22:45;4.20;;;2.20;;
74535;SDS011;63013;51.104;-115.370;2022-09-02T09:25:16;4.80;;;2.30;;
74535;SDS011;63013;51.104;-115.370;2022-09-02T09:27:44;3.00;;;2.10;;
74535;SDS011;63013;51.104;-115.370;2022-09-02T09:30:12;4.50;;;2.60;;
74535;SDS011;63013;51.104;-115.370;2022-09-02T09:32:48;3.80;;;2.10;;
74535;SDS011;63013;51.104;-115.370;2022-09-02T09:35:23;5.80;;;2.40;;
74535;SDS011;63013;51.104;-115.370;2022-09-02T09:37:55;6.60;;;2.60;;
74535;SDS011;63013;51.104;-115.370;2022-09-02T09:40:25;6.40;;;2.60;;
74535;SDS011;63013;51.104;-115.370;2022-09-02T09:43:11;3.80;;;2.90;;
74535;SDS011;63013;51.104;-115.370;2022-09-02T09:48:25;4.10;;;2.30;;
74535;SDS011;63013;51.104;-115.370;2022-09-02T09:53:29;6.40;;;2.50;;
74535;SDS011;63013;51.104;-115.370;2022-09-02T09:55:59;3.00;;;2.30;;
74535;SDS011;63013;51.104;-115.370;2022-09-02T09:58:41;5.70;;;2.80;;
74535;SDS011;63013;51.104;-115.370;2022-09-02T10:03:57;3.30;;;2.30;;
74535;SDS011;63013;51.104;-115.370;2022-09-02T10:09:02;3.00;;;2.30;;
74535;SDS011;63013;51.104;-115.370;2022-09-02T10:11:53;4.70;;;2.50;;
74535;SDS011;63013;51.104;-115.370;2022-09-02T10:14:22;4.70;;;2.40;;
74535;SDS011;63013;51.104;-115.370;2022-09-02T10:20:54;4.30;;;2.50;;
74535;SDS011;63013;51.104;-115.370;2022-09-02T10:23:50;3.40;;;2.60;;
74535;SDS011;63013;51.104;-115.370;2022-09-02T10:32:35;5.50;;;2.50;;
74535;SDS011;63013;51.104;-115.370;2022-09-02T10:35:42;3.90;;;2.40;;
74535;SDS011;63013;51.104;-115.370;2022-09-02T10:44:32;6.40;;;2.70;;
74535;SDS011;63013;51.104;-115.370;2022-09-02T10:59:54;4.70;;;2.50;;
74535;SDS011;63013;51.104;-115.370;2022-09-02T11:02:31;5.60;;;2.50;;
74535;SDS011;63013;51.104;-115.370;2022-09-02T11:05:24;6.30;;;3.10;;
74535;SDS011;63013;51.104;-115.370;2022-09-02T11:08:06;6.80;;;2.70;;
74535;SDS011;63013;51.104;-115.370;2022-09-02T11:10:48;4.50;;;2.80;;
74535;SDS011;63013;51.104;-115.370;2022-09-02T11:13:41;5.80;;;3.00;;
74535;SDS011;63013;51.104;-115.370;2022-09-02T11:23:18;6.80;;;2.70;;
74535;SDS011;63013;51.104;-115.370;2022-09-02T11:35:26;3.30;;;2.80;;
74535;SDS011;63013;51.104;-115.370;2022-09-02T11:50:18;5.20;;;3.20;;
74535;SDS011;63013;51.104;-115.370;2022-09-02T11:53:04;4.40;;;3.00;;
74535;SDS011;63013;51.104;-115.370;2022-09-02T11:58:38;3.10;;;2.70;;
74535;SDS011;63013;51.104;-115.370;2022-09-02T12:04:25;3.60;;;2.60;;
74535;SDS011;63013;51.104;-115.370;2022-09-02T12:09:54;3.60;;;2.80;;
74535;SDS011;63013;51.104;-115.370;2022-09-02T12:24:00;3.50;;;3.00;;
74535;SDS011;63013;51.104;-115.370;2022-09-02T12:26:23;3.30;;;2.90;;
74535;SDS011;63013;51.104;-115.370;2022-09-02T12:31:53;4.50;;;2.90;;
74535;SDS011;63013;51.104;-115.370;2022-09-02T12:36:57;4.40;;;3.20;;
74535;SDS011;63013;51.104;-115.370;2022-09-02T12:47:22;4.30;;;2.80;;
74535;SDS011;63013;51.104;-115.370;2022-09-02T12:56:19;6.40;;;3.10;;
74535;SDS011;63013;51.104;-115.370;2022-09-02T12:58:53;6.00;;;3.00;;
74535;SDS011;63013;51.104;-115.370;2022-09-02T13:20:39;4.00;;;2.80;;
74535;SDS011;63013;51.104;-115.370;2022-09-02T13:27:27;6.10;;;3.10;;
74535;SDS011;63013;51.104;-115.370;2022-09-02T13:33:22;4.50;;;3.00;;
74535;SDS011;63013;51.104;-115.370;2022-09-02T13:35:56;3.90;;;3.00;;
74535;SDS011;63013;51.104;-115.370;2022-09-02T13:38:26;5.10;;;3.30;;
74535;SDS011;63013;51.104;-115.370;2022-09-02T13:40:58;6.40;;;3.20;;
74535;SDS011;63013;51.104;-115.370;2022-09-02T13:43:37;5.10;;;3.00;;
74535;SDS011;63013;51.104;-115.370;2022-09-02T13:46:05;3.00;;;2.60;;
74535;SDS011;63013;51.104;-115.370;2022-09-02T13:48:32;6.50;;;3.10;;
74535;SDS011;63013;51.104;-115.370;2022-09-02T13:51:13;4.90;;;2.90;;
74535;SDS011;63013;51.104;-115.370;2022-09-02T13:53:45;3.40;;;3.00;;
74535;SDS011;63013;51.104;-115.370;2022-09-02T13:56:16;3.60;;;2.70;;
74535;SDS011;63013;51.104;-115.370;2022-09-02T13:58:54;5.50;;;3.30;;
74535;SDS011;63013;51.104;-115.370;2022-09-02T14:01:35;4.30;;;3.00;;
74535;SDS011;63013;51.104;-115.370;2022-09-02T14:04:13;4.00;;;3.00;;
74535;SDS011;63013;51.104;-115.370;2022-09-02T14:06:47;4.00;;;3.00;;
74535;SDS011;63013;51.104;-115.370;2022-09-02T14:09:25;5.20;;;2.60;;
74535;SDS011;63013;51.104;-115.370;2022-09-02T14:11:57;5.90;;;3.00;;
74535;SDS011;63013;51.104;-115.370;2022-09-02T14:14:27;7.00;;;3.00;;
74535;SDS011;63013;51.104;-115.370;2022-09-02T14:17:23;4.40;;;2.70;;
74535;SDS011;63013;51.104;-115.370;2022-09-02T14:20:19;4.30;;;2.80;;
74535;SDS011;63013;51.104;-115.370;2022-09-02T14:22:58;5.30;;;3.00;;
74535;SDS011;63013;51.104;-115.370;2022-09-02T14:25:37;4.50;;;3.20;;
74535;SDS011;63013;51.104;-115.370;2022-09-02T14:28:19;5.80;;;3.20;;
74535;SDS011;63013;51.104;-115.370;2022-09-02T14:31:03;4.30;;;2.80;;
74535;SDS011;63013;51.104;-115.370;2022-09-02T14:43:49;5.30;;;2.90;;
74535;SDS011;63013;51.104;-115.370;2022-09-02T14:46:32;3.70;;;2.60;;
74535;SDS011;63013;51.104;-115.370;2022-09-02T14:49:10;5.90;;;2.60;;
74535;SDS011;63013;51.104;-115.370;2022-09-02T14:55:05;4.30;;;3.10;;
74535;SDS011;63013;51.104;-115.370;2022-09-02T14:57:59;5.10;;;2.70;;
74535;SDS011;63013;51.104;-115.370;2022-09-02T15:00:36;6.20;;;2.80;;
74535;SDS011;63013;51.104;-115.370;2022-09-02T15:03:04;4.60;;;2.60;;
74535;SDS011;63013;51.104;-115.370;2022-09-02T15:05:37;4.40;;;3.00;;
74535;SDS011;63013;51.104;-115.370;2022-09-02T15:08:14;5.20;;;2.80;;
74535;SDS011;63013;51.104;-115.370;2022-09-02T15:10:43;5.00;;;2.90;;
74535;SDS011;63013;51.104;-115.370;2022-09-02T15:15:58;4.40;;;2.60;;
74535;SDS011;63013;51.104;-115.370;2022-09-02T15:18:27;4.60;;;2.50;;
74535;SDS011;63013;51.104;-115.370;2022-09-02T15:20:54;4.20;;;2.60;;
74535;SDS011;63013;51.104;-115.370;2022-09-02T15:23:22;4.20;;;2.50;;
74535;SDS011;63013;51.104;-115.370;2022-09-02T15:25:49;3.40;;;2.20;;
74535;SDS011;63013;51.104;-115.370;2022-09-02T15:28:27;4.00;;;2.60;;
74535;SDS011;63013;51.104;-115.370;2022-09-02T15:30:58;3.60;;;2.70;;
74535;SDS011;63013;51.104;-115.370;2022-09-02T15:33:27;4.30;;;2.50;;
74535;SDS011;63013;51.104;-115.370;2022-09-02T15:36:07;4.00;;;2.60;;
74535;SDS011;63013;51.104;-115.370;2022-09-02T15:38:36;3.40;;;2.40;;
74535;SDS011;63013;51.104;-115.370;2022-09-02T15:41:23;4.80;;;2.70;;
74535;SDS011;63013;51.104;-115.370;2022-09-02T15:43:52;7.00;;;2.80;;
74535;SDS011;63013;51.104;-115.370;2022-09-02T15:46:28;3.70;;;2.50;;
74535;SDS011;63013;51.104;-115.370;2022-09-02T15:49:00;4.10;;;2.70;;
74535;SDS011;63013;51.104;-115.370;2022-09-02T15:51:35;4.30;;;2.40;;
74535;SDS011;63013;51.104;-115.370;2022-09-02T15:54:08;4.70;;;2.30;;
74535;SDS011;63013;51.104;-115.370;2022-09-02T15:56:38;4.40;;;2.60;;
74535;SDS011;63013;51.104;-115.370;2022-09-02T15:59:17;4.00;;;2.60;;
74535;SDS011;63013;51.104;-115.370;2022-09-02T16:01:54;3.80;;;2.50;;
74535;SDS011;63013;51.104;-115.370;2022-09-02T16:04:23;4.90;;;2.70;;
74535;SDS011;63013;51.104;-115.370;2022-09-02T16:06:52;3.30;;;2.40;;
74535;SDS011;63013;51.104;-115.370;2022-09-02T16:09:24;5.20;;;2.70;;
74535;SDS011;63013;51.104;-115.370;2022-09-02T16:11:53;3.40;;;2.50;;
74535;SDS011;63013;51.104;-115.370;2022-09-02T16:14:27;3.20;;;2.60;;
74535;SDS011;63013;51.104;-115.370;2022-09-02T16:16:54;3.50;;;2.50;;
74535;SDS011;63013;51.104;-115.370;2022-09-02T16:19:23;4.20;;;2.50;;
74535;SDS011;63013;51.104;-115.370;2022-09-02T16:21:52;3.10;;;2.50;;
74535;SDS011;63013;51.104;-115.370;2022-09-02T16:24:19;5.20;;;2.30;;
74535;SDS011;63013;51.104;-115.370;2022-09-02T16:26:49;3.70;;;2.30;;
74535;SDS011;63013;51.104;-115.370;2022-09-02T16:29:17;2.70;;;2.30;;
74535;SDS011;63013;51.104;-115.370;2022-09-02T16:31:47;3.70;;;2.40;;
74535;SDS011;63013;51.104;-115.370;2022-09-02T16:34:16;3.00;;;2.60;;
74535;SDS011;63013;51.104;-115.370;2022-09-02T16:36:47;3.00;;;2.40;;
74535;SDS011;63013;51.104;-115.370;2022-09-02T16:39:18;3.30;;;2.30;;
74535;SDS011;63013;51.104;-115.370;2022-09-02T16:41:50;4.70;;;2.50;;
74535;SDS011;63013;51.104;-115.370;2022-09-02T16:44:22;3.20;;;2.40;;
74535;SDS011;63013;51.104;-115.370;2022-09-02T16:46:53;3.80;;;2.40;;
74535;SDS011;63013;51.104;-115.370;2022-09-02T16:49:30;3.50;;;2.20;;
74535;SDS011;63013;51.104;-115.370;2022-09-02T16:51:59;3.40;;;2.50;;
74535;SDS011;63013;51.104;-115.370;2022-09-02T16:54:29;3.30;;;2.30;;
74535;SDS011;63013;51.104;-115.370;2022-09-02T16:56:56;3.20;;;2.30;;
74535;SDS011;63013;51.104;-115.370;2022-09-02T16:59:24;4.20;;;2.20;;
74535;SDS011;63013;51.104;-115.370;2022-09-02T17:01:51;3.90;;;2.40;;
74535;SDS011;63013;51.104;-115.370;2022-09-02T17:04:19;3.10;;;2.60;;
74535;SDS011;63013;51.104;-115.370;2022-09-02T17:06:46;2.50;;;2.30;;
74535;SDS011;63013;51.104;-115.370;2022-09-02T17:09:13;3.40;;;2.40;;
74535;SDS011;63013;51.104;-115.370;2022-09-02T17:11:47;3.10;;;2.50;;
74535;SDS011;63013;51.104;-115.370;2022-09-02T17:14:17;3.40;;;2.30;;
74535;SDS011;63013;51.104;-115.370;2022-09-02T17:16:50;2.80;;;2.10;;
74535;SDS011;63013;51.104;-115.370;2022-09-02T17:19:18;3.60;;;2.30;;